sensor_id;sensor_type;location;lat;lon;timestamp;P1;durP1;ratioP1;P2;durP2;ratioP2
41572;SDS011;27286;47.870;19.006;2023-01-24T00:00:03;5.75;;;2.65;;
41572;SDS011;27286;47.870;19.006;2023-01-24T00:02:30;6.20;;;3.13;;
41572;SDS011;27286;47.870;19.006;2023-01-24T00:04:55;9.93;;;3.30;;
41572;SDS011;27286;47.870;19.006;2023-01-24T00:07:21;4.45;;;3.13;;
41572;SDS011;27286;47.870;19.006;2023-01-24T00:09:46;6.60;;;3.78;;
41572;SDS011;27286;47.870;19.006;2023-01-24T00:12:12;7.15;;;3.22;;
41572;SDS011;27286;47.870;19.006;2023-01-24T00:14:37;7.55;;;4.05;;
41572;SDS011;27286;47.870;19.006;2023-01-24T00:17:03;6.43;;;3.92;;
41572;SDS011;27286;47.870;19.006;2023-01-24T00:19:28;14.80;;;8.05;;
41572;SDS011;27286;47.870;19.006;2023-01-24T00:21:53;18.50;;;7.35;;
41572;SDS011;27286;47.870;19.006;2023-01-24T00:24:19;13.70;;;7.60;;
41572;SDS011;27286;47.870;19.006;2023-01-24T00:26:44;13.05;;;7.10;;
41572;SDS011;27286;47.870;19.006;2023-01-24T00:29:10;12.38;;;6.85;;
41572;SDS011;27286;47.870;19.006;2023-01-24T00:31:35;9.95;;;5.95;;
41572;SDS011;27286;47.870;19.006;2023-01-24T00:34:00;8.35;;;4.55;;
41572;SDS011;27286;47.870;19.006;2023-01-24T00:36:26;9.20;;;5.65;;
41572;SDS011;27286;47.870;19.006;2023-01-24T00:38:52;11.13;;;5.88;;
41572;SDS011;27286;47.870;19.006;2023-01-24T00:41:19;6.55;;;3.60;;
41572;SDS011;27286;47.870;19.006;2023-01-24T00:43:44;7.03;;;3.33;;
41572;SDS011;27286;47.870;19.006;2023-01-24T00:46:10;5.95;;;3.35;;
41572;SDS011;27286;47.870;19.006;2023-01-24T00:48:35;7.65;;;4.20;;
41572;SDS011;27286;47.870;19.006;2023-01-24T00:51:00;8.63;;;3.90;;
41572;SDS011;27286;47.870;19.006;2023-01-24T00:53:26;4.85;;;3.35;;
41572;SDS011;27286;47.870;19.006;2023-01-24T00:55:52;6.95;;;3.40;;
41572;SDS011;27286;47.870;19.006;2023-01-24T00:58:19;6.65;;;4.05;;
41572;SDS011;27286;47.870;19.006;2023-01-24T01:00:45;10.43;;;3.85;;
41572;SDS011;27286;47.870;19.006;2023-01-24T01:03:12;7.72;;;3.97;;
41572;SDS011;27286;47.870;19.006;2023-01-24T01:05:40;6.78;;;3.70;;
41572;SDS011;27286;47.870;19.006;2023-01-24T01:08:05;4.40;;;3.10;;
41572;SDS011;27286;47.870;19.006;2023-01-24T01:10:31;5.50;;;3.53;;
41572;SDS011;27286;47.870;19.006;2023-01-24T01:12:56;5.55;;;3.88;;
41572;SDS011;27286;47.870;19.006;2023-01-24T01:15:22;6.32;;;3.67;;
41572;SDS011;27286;47.870;19.006;2023-01-24T01:17:47;6.13;;;3.50;;
41572;SDS011;27286;47.870;19.006;2023-01-24T01:20:13;9.23;;;4.15;;
41572;SDS011;27286;47.870;19.006;2023-01-24T01:22:38;10.45;;;3.72;;
41572;SDS011;27286;47.870;19.006;2023-01-24T01:25:04;6.63;;;4.28;;
41572;SDS011;27286;47.870;19.006;2023-01-24T01:27:30;4.45;;;3.30;;
41572;SDS011;27286;47.870;19.006;2023-01-24T01:29:55;6.00;;;3.85;;
41572;SDS011;27286;47.870;19.006;2023-01-24T01:32:21;6.55;;;3.53;;
41572;SDS011;27286;47.870;19.006;2023-01-24T01:34:46;6.68;;;3.75;;
41572;SDS011;27286;47.870;19.006;2023-01-24T01:37:11;8.25;;;4.00;;
41572;SDS011;27286;47.870;19.006;2023-01-24T01:39:37;9.68;;;4.53;;
41572;SDS011;27286;47.870;19.006;2023-01-24T01:42:02;7.28;;;4.43;;
41572;SDS011;27286;47.870;19.006;2023-01-24T01:44:29;7.65;;;4.57;;
41572;SDS011;27286;47.870;19.006;2023-01-24T01:50:03;9.00;;;4.25;;
41572;SDS011;27286;47.870;19.006;2023-01-24T01:52:40;8.80;;;4.97;;
41572;SDS011;27286;47.870;19.006;2023-01-24T01:55:14;9.05;;;4.45;;
41572;SDS011;27286;47.870;19.006;2023-01-24T01:57:43;8.15;;;5.38;;
41572;SDS011;27286;47.870;19.006;2023-01-24T02:00:11;7.25;;;5.18;;
41572;SDS011;27286;47.870;19.006;2023-01-24T02:02:40;7.38;;;4.80;;
41572;SDS011;27286;47.870;19.006;2023-01-24T02:05:08;9.02;;;4.10;;
41572;SDS011;27286;47.870;19.006;2023-01-24T02:07:41;9.35;;;5.18;;
41572;SDS011;27286;47.870;19.006;2023-01-24T02:10:15;8.52;;;4.40;;
41572;SDS011;27286;47.870;19.006;2023-01-24T02:12:43;6.75;;;4.65;;
41572;SDS011;27286;47.870;19.006;2023-01-24T02:15:19;8.35;;;4.60;;
41572;SDS011;27286;47.870;19.006;2023-01-24T02:18:05;8.35;;;4.35;;
41572;SDS011;27286;47.870;19.006;2023-01-24T02:26:01;7.65;;;4.95;;
41572;SDS011;27286;47.870;19.006;2023-01-24T02:28:37;7.97;;;4.60;;
41572;SDS011;27286;47.870;19.006;2023-01-24T02:31:05;8.32;;;4.10;;
41572;SDS011;27286;47.870;19.006;2023-01-24T02:33:31;7.80;;;4.18;;
41572;SDS011;27286;47.870;19.006;2023-01-24T02:36:40;11.20;;;5.18;;
41572;SDS011;27286;47.870;19.006;2023-01-24T02:38:50;8.07;;;4.30;;
41572;SDS011;27286;47.870;19.006;2023-01-24T02:44:25;7.20;;;3.78;;
41572;SDS011;27286;47.870;19.006;2023-01-24T02:46:57;9.13;;;4.95;;
41572;SDS011;27286;47.870;19.006;2023-01-24T02:49:22;9.63;;;4.90;;
41572;SDS011;27286;47.870;19.006;2023-01-24T02:51:48;6.68;;;4.82;;
41572;SDS011;27286;47.870;19.006;2023-01-24T02:54:32;7.90;;;4.60;;
41572;SDS011;27286;47.870;19.006;2023-01-24T02:56:58;8.32;;;5.13;;
41572;SDS011;27286;47.870;19.006;2023-01-24T02:59:42;7.55;;;4.35;;
41572;SDS011;27286;47.870;19.006;2023-01-24T03:02:07;6.40;;;4.38;;
41572;SDS011;27286;47.870;19.006;2023-01-24T03:04:33;8.25;;;4.38;;
41572;SDS011;27286;47.870;19.006;2023-01-24T03:06:58;10.60;;;5.13;;
41572;SDS011;27286;47.870;19.006;2023-01-24T03:09:23;9.95;;;5.63;;
41572;SDS011;27286;47.870;19.006;2023-01-24T03:11:59;13.07;;;6.13;;
41572;SDS011;27286;47.870;19.006;2023-01-24T03:14:44;11.40;;;5.10;;
41572;SDS011;27286;47.870;19.006;2023-01-24T03:17:28;14.20;;;4.80;;
41572;SDS011;27286;47.870;19.006;2023-01-24T03:20:12;10.52;;;6.72;;
41572;SDS011;27286;47.870;19.006;2023-01-24T03:22:56;8.30;;;5.20;;
41572;SDS011;27286;47.870;19.006;2023-01-24T03:25:40;8.98;;;5.13;;
41572;SDS011;27286;47.870;19.006;2023-01-24T03:28:24;7.70;;;5.32;;
41572;SDS011;27286;47.870;19.006;2023-01-24T03:31:08;10.85;;;6.38;;
41572;SDS011;27286;47.870;19.006;2023-01-24T03:33:52;12.38;;;7.10;;
41572;SDS011;27286;47.870;19.006;2023-01-24T03:36:36;14.75;;;10.15;;
41572;SDS011;27286;47.870;19.006;2023-01-24T03:39:02;11.65;;;7.15;;
41572;SDS011;27286;47.870;19.006;2023-01-24T03:41:46;12.10;;;7.35;;
41572;SDS011;27286;47.870;19.006;2023-01-24T03:44:11;10.57;;;6.40;;
41572;SDS011;27286;47.870;19.006;2023-01-24T03:46:37;10.30;;;6.30;;
41572;SDS011;27286;47.870;19.006;2023-01-24T03:49:05;11.60;;;6.25;;
41572;SDS011;27286;47.870;19.006;2023-01-24T03:51:31;11.50;;;6.53;;
41572;SDS011;27286;47.870;19.006;2023-01-24T03:54:15;9.63;;;6.38;;
41572;SDS011;27286;47.870;19.006;2023-01-24T03:56:40;8.80;;;5.45;;
41572;SDS011;27286;47.870;19.006;2023-01-24T03:59:06;10.90;;;6.22;;
41572;SDS011;27286;47.870;19.006;2023-01-24T04:01:31;10.77;;;6.78;;
41572;SDS011;27286;47.870;19.006;2023-01-24T04:03:57;8.77;;;6.40;;
41572;SDS011;27286;47.870;19.006;2023-01-24T04:06:22;12.60;;;6.38;;
41572;SDS011;27286;47.870;19.006;2023-01-24T04:08:48;10.68;;;6.38;;
41572;SDS011;27286;47.870;19.006;2023-01-24T04:11:14;8.93;;;5.78;;
41572;SDS011;27286;47.870;19.006;2023-01-24T04:13:39;10.75;;;6.28;;
41572;SDS011;27286;47.870;19.006;2023-01-24T04:16:06;10.18;;;6.65;;
41572;SDS011;27286;47.870;19.006;2023-01-24T04:18:32;12.10;;;6.15;;
41572;SDS011;27286;47.870;19.006;2023-01-24T04:21:00;10.88;;;6.03;;
41572;SDS011;27286;47.870;19.006;2023-01-24T04:23:27;8.80;;;6.25;;
41572;SDS011;27286;47.870;19.006;2023-01-24T04:25:52;11.35;;;7.47;;
41572;SDS011;27286;47.870;19.006;2023-01-24T04:28:21;16.02;;;9.75;;
41572;SDS011;27286;47.870;19.006;2023-01-24T04:31:08;12.88;;;7.03;;
41572;SDS011;27286;47.870;19.006;2023-01-24T04:33:33;13.77;;;7.75;;
41572;SDS011;27286;47.870;19.006;2023-01-24T04:35:59;15.55;;;8.57;;
41572;SDS011;27286;47.870;19.006;2023-01-24T04:38:24;13.18;;;8.52;;
41572;SDS011;27286;47.870;19.006;2023-01-24T04:40:57;11.90;;;7.75;;
41572;SDS011;27286;47.870;19.006;2023-01-24T04:43:24;13.85;;;7.95;;
41572;SDS011;27286;47.870;19.006;2023-01-24T04:45:49;11.43;;;7.95;;
41572;SDS011;27286;47.870;19.006;2023-01-24T04:48:15;13.05;;;8.48;;
41572;SDS011;27286;47.870;19.006;2023-01-24T04:50:40;11.73;;;7.90;;
41572;SDS011;27286;47.870;19.006;2023-01-24T04:53:06;11.70;;;7.32;;
41572;SDS011;27286;47.870;19.006;2023-01-24T04:55:31;12.98;;;7.82;;
41572;SDS011;27286;47.870;19.006;2023-01-24T04:57:56;12.23;;;6.60;;
41572;SDS011;27286;47.870;19.006;2023-01-24T05:00:22;19.10;;;9.07;;
41572;SDS011;27286;47.870;19.006;2023-01-24T05:02:50;14.95;;;9.45;;
41572;SDS011;27286;47.870;19.006;2023-01-24T05:05:16;16.95;;;12.95;;
41572;SDS011;27286;47.870;19.006;2023-01-24T05:07:41;20.30;;;12.55;;
41572;SDS011;27286;47.870;19.006;2023-01-24T05:10:07;16.75;;;10.88;;
41572;SDS011;27286;47.870;19.006;2023-01-24T05:12:33;15.15;;;9.65;;
41572;SDS011;27286;47.870;19.006;2023-01-24T05:14:58;11.25;;;8.35;;
41572;SDS011;27286;47.870;19.006;2023-01-24T05:17:24;14.32;;;8.68;;
41572;SDS011;27286;47.870;19.006;2023-01-24T05:19:49;10.65;;;7.30;;
41572;SDS011;27286;47.870;19.006;2023-01-24T05:22:14;14.15;;;8.25;;
41572;SDS011;27286;47.870;19.006;2023-01-24T05:24:40;12.75;;;7.13;;
41572;SDS011;27286;47.870;19.006;2023-01-24T05:27:05;12.50;;;7.20;;
41572;SDS011;27286;47.870;19.006;2023-01-24T05:29:31;11.55;;;7.07;;
41572;SDS011;27286;47.870;19.006;2023-01-24T05:31:56;13.63;;;8.75;;
41572;SDS011;27286;47.870;19.006;2023-01-24T05:34:21;13.68;;;8.38;;
41572;SDS011;27286;47.870;19.006;2023-01-24T05:36:47;14.95;;;8.52;;
41572;SDS011;27286;47.870;19.006;2023-01-24T05:39:12;13.88;;;7.30;;
41572;SDS011;27286;47.870;19.006;2023-01-24T05:41:39;17.52;;;11.02;;
41572;SDS011;27286;47.870;19.006;2023-01-24T05:44:05;13.50;;;8.60;;
41572;SDS011;27286;47.870;19.006;2023-01-24T05:46:30;25.00;;;14.57;;
41572;SDS011;27286;47.870;19.006;2023-01-24T05:48:56;82.88;;;42.35;;
41572;SDS011;27286;47.870;19.006;2023-01-24T05:51:21;67.90;;;37.47;;
41572;SDS011;27286;47.870;19.006;2023-01-24T05:53:47;51.40;;;27.60;;
41572;SDS011;27286;47.870;19.006;2023-01-24T05:56:13;47.50;;;25.35;;
41572;SDS011;27286;47.870;19.006;2023-01-24T05:58:44;38.83;;;21.30;;
41572;SDS011;27286;47.870;19.006;2023-01-24T06:01:11;45.13;;;25.33;;
41572;SDS011;27286;47.870;19.006;2023-01-24T06:03:41;41.63;;;20.33;;
41572;SDS011;27286;47.870;19.006;2023-01-24T06:06:08;36.38;;;19.92;;
41572;SDS011;27286;47.870;19.006;2023-01-24T06:08:36;24.40;;;14.07;;
41572;SDS011;27286;47.870;19.006;2023-01-24T06:11:03;24.38;;;14.07;;
41572;SDS011;27286;47.870;19.006;2023-01-24T06:13:31;24.65;;;14.02;;
41572;SDS011;27286;47.870;19.006;2023-01-24T06:16:04;26.33;;;14.85;;
41572;SDS011;27286;47.870;19.006;2023-01-24T06:18:31;23.77;;;15.50;;
41572;SDS011;27286;47.870;19.006;2023-01-24T06:20:58;24.23;;;13.82;;
41572;SDS011;27286;47.870;19.006;2023-01-24T06:23:24;19.05;;;10.85;;
41572;SDS011;27286;47.870;19.006;2023-01-24T06:25:52;18.88;;;11.98;;
41572;SDS011;27286;47.870;19.006;2023-01-24T06:28:18;25.52;;;12.45;;
41572;SDS011;27286;47.870;19.006;2023-01-24T06:30:44;14.35;;;8.75;;
41572;SDS011;27286;47.870;19.006;2023-01-24T06:38:53;23.65;;;15.55;;
41572;SDS011;27286;47.870;19.006;2023-01-24T06:41:19;32.80;;;20.23;;
41572;SDS011;27286;47.870;19.006;2023-01-24T06:43:44;19.98;;;12.23;;
41572;SDS011;27286;47.870;19.006;2023-01-24T06:46:11;27.50;;;16.02;;
41572;SDS011;27286;47.870;19.006;2023-01-24T06:48:37;26.20;;;15.38;;
41572;SDS011;27286;47.870;19.006;2023-01-24T06:51:04;38.47;;;26.15;;
41572;SDS011;27286;47.870;19.006;2023-01-24T06:53:31;34.20;;;23.00;;
41572;SDS011;27286;47.870;19.006;2023-01-24T06:55:57;32.53;;;19.45;;
41572;SDS011;27286;47.870;19.006;2023-01-24T06:58:23;29.40;;;20.00;;
41572;SDS011;27286;47.870;19.006;2023-01-24T07:00:48;24.83;;;14.05;;
41572;SDS011;27286;47.870;19.006;2023-01-24T07:03:13;21.60;;;13.70;;
41572;SDS011;27286;47.870;19.006;2023-01-24T07:05:39;23.50;;;13.18;;
41572;SDS011;27286;47.870;19.006;2023-01-24T07:08:05;23.58;;;13.70;;
41572;SDS011;27286;47.870;19.006;2023-01-24T07:10:31;20.20;;;12.57;;
41572;SDS011;27286;47.870;19.006;2023-01-24T07:12:57;21.02;;;12.57;;
41572;SDS011;27286;47.870;19.006;2023-01-24T07:15:23;18.90;;;11.95;;
41572;SDS011;27286;47.870;19.006;2023-01-24T07:17:49;16.23;;;11.55;;
41572;SDS011;27286;47.870;19.006;2023-01-24T07:20:15;21.67;;;13.48;;
41572;SDS011;27286;47.870;19.006;2023-01-24T07:22:41;23.63;;;15.13;;
41572;SDS011;27286;47.870;19.006;2023-01-24T07:25:11;37.03;;;22.50;;
41572;SDS011;27286;47.870;19.006;2023-01-24T07:27:42;46.13;;;30.77;;
41572;SDS011;27286;47.870;19.006;2023-01-24T07:30:09;31.17;;;22.33;;
41572;SDS011;27286;47.870;19.006;2023-01-24T07:32:37;38.38;;;23.70;;
41572;SDS011;27286;47.870;19.006;2023-01-24T07:35:03;35.10;;;24.58;;
41572;SDS011;27286;47.870;19.006;2023-01-24T07:37:30;37.25;;;23.70;;
41572;SDS011;27286;47.870;19.006;2023-01-24T07:39:56;36.65;;;24.23;;
41572;SDS011;27286;47.870;19.006;2023-01-24T07:42:21;37.78;;;23.55;;
41572;SDS011;27286;47.870;19.006;2023-01-24T07:44:46;31.50;;;22.65;;
41572;SDS011;27286;47.870;19.006;2023-01-24T07:47:12;26.13;;;19.17;;
41572;SDS011;27286;47.870;19.006;2023-01-24T07:49:38;27.48;;;18.77;;
41572;SDS011;27286;47.870;19.006;2023-01-24T07:52:03;36.35;;;20.20;;
41572;SDS011;27286;47.870;19.006;2023-01-24T07:54:28;27.92;;;19.00;;
41572;SDS011;27286;47.870;19.006;2023-01-24T07:56:54;27.80;;;19.08;;
41572;SDS011;27286;47.870;19.006;2023-01-24T07:59:19;21.15;;;15.05;;
41572;SDS011;27286;47.870;19.006;2023-01-24T08:01:45;18.27;;;12.73;;
41572;SDS011;27286;47.870;19.006;2023-01-24T08:04:10;15.23;;;9.40;;
41572;SDS011;27286;47.870;19.006;2023-01-24T08:06:36;11.88;;;5.30;;
41572;SDS011;27286;47.870;19.006;2023-01-24T08:09:03;22.48;;;13.27;;
41572;SDS011;27286;47.870;19.006;2023-01-24T08:11:28;94.78;;;53.45;;
41572;SDS011;27286;47.870;19.006;2023-01-24T08:13:54;131.38;;;83.93;;
41572;SDS011;27286;47.870;19.006;2023-01-24T08:16:20;108.00;;;70.18;;
41572;SDS011;27286;47.870;19.006;2023-01-24T08:18:48;47.30;;;31.52;;
41572;SDS011;27286;47.870;19.006;2023-01-24T08:21:14;30.08;;;19.15;;
41572;SDS011;27286;47.870;19.006;2023-01-24T08:23:39;21.42;;;14.60;;
41572;SDS011;27286;47.870;19.006;2023-01-24T08:26:05;12.80;;;6.65;;
41572;SDS011;27286;47.870;19.006;2023-01-24T08:28:33;7.75;;;4.43;;
41572;SDS011;27286;47.870;19.006;2023-01-24T08:30:59;7.18;;;3.83;;
41572;SDS011;27286;47.870;19.006;2023-01-24T08:33:24;7.93;;;4.88;;
41572;SDS011;27286;47.870;19.006;2023-01-24T08:35:50;7.60;;;4.78;;
41572;SDS011;27286;47.870;19.006;2023-01-24T08:38:16;7.40;;;5.18;;
41572;SDS011;27286;47.870;19.006;2023-01-24T08:40:42;6.05;;;3.83;;
41572;SDS011;27286;47.870;19.006;2023-01-24T08:43:08;25.83;;;19.58;;
41572;SDS011;27286;47.870;19.006;2023-01-24T08:45:33;29.75;;;20.40;;
41572;SDS011;27286;47.870;19.006;2023-01-24T08:47:59;27.92;;;17.20;;
41572;SDS011;27286;47.870;19.006;2023-01-24T08:50:25;22.40;;;15.02;;
41572;SDS011;27286;47.870;19.006;2023-01-24T08:52:53;17.55;;;11.98;;
41572;SDS011;27286;47.870;19.006;2023-01-24T08:55:20;13.05;;;8.70;;
41572;SDS011;27286;47.870;19.006;2023-01-24T08:57:45;8.45;;;4.10;;
41572;SDS011;27286;47.870;19.006;2023-01-24T09:00:11;5.88;;;3.72;;
41572;SDS011;27286;47.870;19.006;2023-01-24T09:02:37;5.00;;;3.20;;
41572;SDS011;27286;47.870;19.006;2023-01-24T09:05:04;4.25;;;2.55;;
41572;SDS011;27286;47.870;19.006;2023-01-24T09:07:30;5.32;;;2.67;;
41572;SDS011;27286;47.870;19.006;2023-01-24T09:09:56;4.95;;;3.00;;
41572;SDS011;27286;47.870;19.006;2023-01-24T09:12:21;3.63;;;2.50;;
41572;SDS011;27286;47.870;19.006;2023-01-24T09:14:47;5.30;;;3.50;;
41572;SDS011;27286;47.870;19.006;2023-01-24T09:17:12;4.35;;;2.42;;
41572;SDS011;27286;47.870;19.006;2023-01-24T09:19:37;5.47;;;3.33;;
41572;SDS011;27286;47.870;19.006;2023-01-24T09:22:03;5.15;;;3.10;;
41572;SDS011;27286;47.870;19.006;2023-01-24T09:24:28;4.97;;;2.67;;
41572;SDS011;27286;47.870;19.006;2023-01-24T09:26:54;5.47;;;2.90;;
41572;SDS011;27286;47.870;19.006;2023-01-24T09:29:19;4.75;;;2.80;;
41572;SDS011;27286;47.870;19.006;2023-01-24T09:31:46;7.00;;;3.67;;
41572;SDS011;27286;47.870;19.006;2023-01-24T09:34:12;4.70;;;2.97;;
41572;SDS011;27286;47.870;19.006;2023-01-24T09:36:37;5.40;;;3.10;;
41572;SDS011;27286;47.870;19.006;2023-01-24T09:39:02;4.68;;;3.08;;
41572;SDS011;27286;47.870;19.006;2023-01-24T09:44:25;4.43;;;2.17;;
41572;SDS011;27286;47.870;19.006;2023-01-24T09:47:02;5.50;;;2.97;;
41572;SDS011;27286;47.870;19.006;2023-01-24T09:49:45;5.07;;;2.97;;
41572;SDS011;27286;47.870;19.006;2023-01-24T09:52:51;6.03;;;2.95;;
41572;SDS011;27286;47.870;19.006;2023-01-24T09:55:22;3.45;;;2.05;;
41572;SDS011;27286;47.870;19.006;2023-01-24T10:00:24;3.00;;;2.20;;
41572;SDS011;27286;47.870;19.006;2023-01-24T10:02:52;3.67;;;2.30;;
41572;SDS011;27286;47.870;19.006;2023-01-24T10:05:20;3.45;;;2.33;;
41572;SDS011;27286;47.870;19.006;2023-01-24T10:08:11;4.00;;;2.13;;
41572;SDS011;27286;47.870;19.006;2023-01-24T10:24:51;3.88;;;2.70;;
41572;SDS011;27286;47.870;19.006;2023-01-24T10:27:25;4.05;;;2.90;;
41572;SDS011;27286;47.870;19.006;2023-01-24T10:29:57;3.60;;;2.53;;
41572;SDS011;27286;47.870;19.006;2023-01-24T10:32:29;4.80;;;2.90;;
41572;SDS011;27286;47.870;19.006;2023-01-24T10:34:58;4.57;;;2.78;;
41572;SDS011;27286;47.870;19.006;2023-01-24T10:37:41;5.20;;;2.72;;
41572;SDS011;27286;47.870;19.006;2023-01-24T10:40:10;4.93;;;2.72;;
41572;SDS011;27286;47.870;19.006;2023-01-24T10:42:42;3.38;;;2.17;;
41572;SDS011;27286;47.870;19.006;2023-01-24T10:45:35;4.10;;;2.13;;
41572;SDS011;27286;47.870;19.006;2023-01-24T10:50:45;7.50;;;3.28;;
41572;SDS011;27286;47.870;19.006;2023-01-24T10:53:12;10.85;;;2.47;;
41572;SDS011;27286;47.870;19.006;2023-01-24T10:56:04;5.78;;;2.83;;
41572;SDS011;27286;47.870;19.006;2023-01-24T10:58:40;4.40;;;2.40;;
41572;SDS011;27286;47.870;19.006;2023-01-24T11:01:18;4.35;;;1.98;;
41572;SDS011;27286;47.870;19.006;2023-01-24T11:03:49;3.90;;;1.80;;
41572;SDS011;27286;47.870;19.006;2023-01-24T11:06:34;4.00;;;2.13;;
41572;SDS011;27286;47.870;19.006;2023-01-24T11:11:36;3.60;;;2.30;;
41572;SDS011;27286;47.870;19.006;2023-01-24T11:14:09;7.25;;;2.33;;
41572;SDS011;27286;47.870;19.006;2023-01-24T11:16:42;4.03;;;2.17;;
41572;SDS011;27286;47.870;19.006;2023-01-24T11:19:25;2.88;;;1.75;;
41572;SDS011;27286;47.870;19.006;2023-01-24T11:21:59;3.55;;;2.20;;
41572;SDS011;27286;47.870;19.006;2023-01-24T11:24:44;5.82;;;2.10;;
41572;SDS011;27286;47.870;19.006;2023-01-24T11:27:13;4.07;;;2.33;;
41572;SDS011;27286;47.870;19.006;2023-01-24T11:29:40;6.60;;;2.60;;
41572;SDS011;27286;47.870;19.006;2023-01-24T11:32:26;2.63;;;1.45;;
41572;SDS011;27286;47.870;19.006;2023-01-24T11:45:25;3.20;;;1.73;;
41572;SDS011;27286;47.870;19.006;2023-01-24T11:48:06;3.05;;;2.13;;
41572;SDS011;27286;47.870;19.006;2023-01-24T11:53:54;6.13;;;2.00;;
41572;SDS011;27286;47.870;19.006;2023-01-24T12:06:38;4.70;;;2.28;;
41572;SDS011;27286;47.870;19.006;2023-01-24T12:09:21;5.30;;;2.72;;
41572;SDS011;27286;47.870;19.006;2023-01-24T12:18:10;5.82;;;2.28;;
41572;SDS011;27286;47.870;19.006;2023-01-24T12:22:55;5.18;;;2.63;;
41572;SDS011;27286;47.870;19.006;2023-01-24T12:25:24;5.35;;;3.08;;
41572;SDS011;27286;47.870;19.006;2023-01-24T12:27:56;3.85;;;2.20;;
41572;SDS011;27286;47.870;19.006;2023-01-24T12:30:40;7.47;;;3.13;;
41572;SDS011;27286;47.870;19.006;2023-01-24T12:35:49;3.78;;;2.38;;
41572;SDS011;27286;47.870;19.006;2023-01-24T12:38:24;5.03;;;2.75;;
41572;SDS011;27286;47.870;19.006;2023-01-24T12:46:14;5.63;;;2.83;;
41572;SDS011;27286;47.870;19.006;2023-01-24T12:51:39;8.75;;;3.00;;
41572;SDS011;27286;47.870;19.006;2023-01-24T12:56:42;4.03;;;2.47;;
41572;SDS011;27286;47.870;19.006;2023-01-24T12:59:27;5.00;;;2.83;;
41572;SDS011;27286;47.870;19.006;2023-01-24T13:04:39;4.45;;;2.78;;
41572;SDS011;27286;47.870;19.006;2023-01-24T13:12:56;3.97;;;2.35;;
41572;SDS011;27286;47.870;19.006;2023-01-24T13:15:26;4.30;;;2.35;;
41572;SDS011;27286;47.870;19.006;2023-01-24T13:21:29;5.47;;;3.00;;
41572;SDS011;27286;47.870;19.006;2023-01-24T13:26:50;3.65;;;2.45;;
41572;SDS011;27286;47.870;19.006;2023-01-24T13:32:26;4.78;;;2.78;;
41572;SDS011;27286;47.870;19.006;2023-01-24T13:34:56;5.40;;;2.90;;
41572;SDS011;27286;47.870;19.006;2023-01-24T13:37:25;4.53;;;2.35;;
41572;SDS011;27286;47.870;19.006;2023-01-24T13:40:05;4.68;;;2.83;;
41572;SDS011;27286;47.870;19.006;2023-01-24T13:42:40;4.28;;;2.83;;
41572;SDS011;27286;47.870;19.006;2023-01-24T13:47:51;4.88;;;3.05;;
41572;SDS011;27286;47.870;19.006;2023-01-24T13:50:21;4.40;;;2.95;;
41572;SDS011;27286;47.870;19.006;2023-01-24T13:52:58;4.90;;;3.20;;
41572;SDS011;27286;47.870;19.006;2023-01-24T14:00:28;7.20;;;3.50;;
41572;SDS011;27286;47.870;19.006;2023-01-24T14:02:58;5.13;;;3.58;;
41572;SDS011;27286;47.870;19.006;2023-01-24T14:07:55;5.75;;;3.45;;
41572;SDS011;27286;47.870;19.006;2023-01-24T14:10:35;7.70;;;3.75;;
41572;SDS011;27286;47.870;19.006;2023-01-24T14:13:03;6.00;;;3.55;;
41572;SDS011;27286;47.870;19.006;2023-01-24T14:15:38;6.43;;;3.42;;
41572;SDS011;27286;47.870;19.006;2023-01-24T14:21:22;5.00;;;2.80;;
41572;SDS011;27286;47.870;19.006;2023-01-24T14:23:51;6.95;;;4.10;;
41572;SDS011;27286;47.870;19.006;2023-01-24T14:26:21;7.20;;;3.10;;
41572;SDS011;27286;47.870;19.006;2023-01-24T14:28:52;5.20;;;2.70;;
41572;SDS011;27286;47.870;19.006;2023-01-24T14:34:03;8.60;;;2.60;;
41572;SDS011;27286;47.870;19.006;2023-01-24T14:36:31;4.17;;;2.73;;
41572;SDS011;27286;47.870;19.006;2023-01-24T14:39:12;5.97;;;3.22;;
41572;SDS011;27286;47.870;19.006;2023-01-24T14:41:38;5.80;;;3.33;;
41572;SDS011;27286;47.870;19.006;2023-01-24T14:46:56;6.40;;;3.35;;
41572;SDS011;27286;47.870;19.006;2023-01-24T14:49:25;4.80;;;2.65;;
41572;SDS011;27286;47.870;19.006;2023-01-24T14:51:55;6.72;;;2.83;;
41572;SDS011;27286;47.870;19.006;2023-01-24T14:54:21;5.20;;;3.22;;
41572;SDS011;27286;47.870;19.006;2023-01-24T14:56:48;6.05;;;3.47;;
41572;SDS011;27286;47.870;19.006;2023-01-24T14:59:16;6.80;;;3.35;;
41572;SDS011;27286;47.870;19.006;2023-01-24T15:01:43;7.72;;;3.22;;
41572;SDS011;27286;47.870;19.006;2023-01-24T15:04:27;8.50;;;3.25;;
41572;SDS011;27286;47.870;19.006;2023-01-24T15:09:52;8.82;;;3.55;;
41572;SDS011;27286;47.870;19.006;2023-01-24T15:14:49;9.10;;;3.55;;
41572;SDS011;27286;47.870;19.006;2023-01-24T15:17:18;10.48;;;3.67;;
41572;SDS011;27286;47.870;19.006;2023-01-24T15:19:48;6.35;;;3.50;;
41572;SDS011;27286;47.870;19.006;2023-01-24T15:22:18;6.25;;;3.35;;
41572;SDS011;27286;47.870;19.006;2023-01-24T15:24:49;6.82;;;3.45;;
41572;SDS011;27286;47.870;19.006;2023-01-24T15:28:08;5.75;;;3.50;;
41572;SDS011;27286;47.870;19.006;2023-01-24T15:32:45;7.70;;;4.07;;
41572;SDS011;27286;47.870;19.006;2023-01-24T15:37:46;13.60;;;8.43;;
41572;SDS011;27286;47.870;19.006;2023-01-24T15:40:23;19.98;;;11.20;;
41572;SDS011;27286;47.870;19.006;2023-01-24T15:42:49;49.10;;;32.45;;
41572;SDS011;27286;47.870;19.006;2023-01-24T15:45:34;21.10;;;14.68;;
41572;SDS011;27286;47.870;19.006;2023-01-24T15:48:11;30.27;;;18.80;;
41572;SDS011;27286;47.870;19.006;2023-01-24T15:53:32;26.15;;;19.08;;
41572;SDS011;27286;47.870;19.006;2023-01-24T15:58:47;32.20;;;22.10;;
41572;SDS011;27286;47.870;19.006;2023-01-24T16:01:13;29.80;;;21.77;;
41572;SDS011;27286;47.870;19.006;2023-01-24T16:03:39;39.60;;;26.85;;
41572;SDS011;27286;47.870;19.006;2023-01-24T16:06:04;37.38;;;27.92;;
41572;SDS011;27286;47.870;19.006;2023-01-24T16:08:30;53.28;;;34.97;;
41572;SDS011;27286;47.870;19.006;2023-01-24T16:10:55;39.90;;;26.73;;
41572;SDS011;27286;47.870;19.006;2023-01-24T16:13:41;48.70;;;33.38;;
41572;SDS011;27286;47.870;19.006;2023-01-24T16:16:13;53.65;;;37.78;;
41572;SDS011;27286;47.870;19.006;2023-01-24T16:18:40;50.97;;;35.08;;
41572;SDS011;27286;47.870;19.006;2023-01-24T16:21:08;45.35;;;32.65;;
41572;SDS011;27286;47.870;19.006;2023-01-24T16:23:34;46.22;;;33.33;;
41572;SDS011;27286;47.870;19.006;2023-01-24T16:26:00;46.42;;;32.50;;
41572;SDS011;27286;47.870;19.006;2023-01-24T16:28:26;52.05;;;36.83;;
41572;SDS011;27286;47.870;19.006;2023-01-24T16:30:53;50.55;;;32.13;;
41572;SDS011;27286;47.870;19.006;2023-01-24T16:33:25;51.15;;;30.98;;
41572;SDS011;27286;47.870;19.006;2023-01-24T16:35:50;47.97;;;33.63;;
41572;SDS011;27286;47.870;19.006;2023-01-24T16:38:16;15.75;;;11.27;;
41572;SDS011;27286;47.870;19.006;2023-01-24T16:40:42;23.67;;;10.77;;
41572;SDS011;27286;47.870;19.006;2023-01-24T16:43:08;21.15;;;13.57;;
41572;SDS011;27286;47.870;19.006;2023-01-24T16:45:43;23.00;;;14.75;;
41572;SDS011;27286;47.870;19.006;2023-01-24T16:48:11;19.70;;;11.68;;
41572;SDS011;27286;47.870;19.006;2023-01-24T16:50:37;15.90;;;9.77;;
41572;SDS011;27286;47.870;19.006;2023-01-24T16:53:04;12.75;;;9.15;;
41572;SDS011;27286;47.870;19.006;2023-01-24T16:55:30;15.10;;;8.43;;
41572;SDS011;27286;47.870;19.006;2023-01-24T16:57:58;13.15;;;8.43;;